createdAt,value
2023-07-01T00:02:38.332Z,74738.91
2023-07-01T00:05:21.998Z,74696.97
2023-07-01T00:08:09.291Z,74702.38
2023-07-01T00:10:52.450Z,74678.06
2023-07-01T00:13:35.115Z,74658.03
2023-07-01T00:16:19.596Z,74604.84
2023-07-01T00:18:57.576Z,74600.25
2023-07-01T00:21:38.370Z,74643.75
2023-07-01T00:24:27.248Z,74651.03
2023-07-01T00:27:18.461Z,74609.38
2023-07-01T00:30:04.359Z,74565.97
2023-07-01T00:32:51.281Z,74654.97
2023-07-01T00:35:27.279Z,74659.22
2023-07-01T00:38:18.146Z,74653.75
2023-07-01T00:41:06.080Z,74619.44
2023-07-01T00:43:52.742Z,74638.25
2023-07-01T00:46:35.663Z,74581.75
2023-07-01T00:52:11.954Z,74587.19
2023-07-01T00:55:06.197Z,74603.09
2023-07-01T00:57:55.346Z,74623.94
2023-07-01T01:00:38.987Z,74630.63
2023-07-01T01:03:43.636Z,74647.06
2023-07-01T01:06:39.201Z,74623.41
2023-07-01T01:09:41.494Z,74659.22
2023-07-01T01:12:25.580Z,74660.16
2023-07-01T01:15:08.014Z,74644.63
2023-07-01T01:17:53.522Z,74645.84
2023-07-01T01:20:34.500Z,74628.22
2023-07-01T01:23:29.832Z,74637.06
2023-07-01T01:26:17.284Z,74584.78
2023-07-01T01:29:01.967Z,74599.97
2023-07-01T01:31:40.427Z,74507.66
2023-07-01T01:34:23.974Z,74509.78
2023-07-01T01:37:06.621Z,74518.25
2023-07-01T01:39:48.777Z,74506.09
2023-07-01T01:42:59.512Z,74504.94
2023-07-01T01:45:40.696Z,74413.19
2023-07-01T01:48:19.309Z,74432.03
2023-07-01T01:51:00.099Z,74440.84
2023-07-01T01:53:42.885Z,74406.50
2023-07-01T01:56:22.223Z,74397.09
2023-07-01T01:58:59.882Z,74383.09
2023-07-01T02:01:38.325Z,74405.59
2023-07-01T02:04:18.914Z,74447.50
2023-07-01T02:07:01.009Z,74468.44
2023-07-01T02:09:39.338Z,74519.47
2023-07-01T02:12:39.417Z,74533.47
2023-07-01T02:18:17.939Z,74461.13
2023-07-01T02:20:59.878Z,74479.69
2023-07-01T02:23:40.635Z,74473.63
2023-07-01T02:26:23.085Z,74453.16
2023-07-01T02:29:03.044Z,74475.72
2023-07-01T02:31:52.607Z,74522.81
2023-07-01T02:34:37.130Z,74517.91
2023-07-01T02:37:20.616Z,74487.28
2023-07-01T02:39:55.967Z,74487.88
2023-07-01T02:42:38.412Z,74474.50
2023-07-01T02:45:19.432Z,74471.19
2023-07-01T02:48:04.842Z,74441.75
2023-07-01T02:50:47.045Z,74430.22
2023-07-01T02:53:23.067Z,74435.66
2023-07-01T02:56:09.052Z,74435.69
2023-07-01T02:58:54.327Z,74373.41
2023-07-01T03:01:37.483Z,74426.88
2023-07-01T03:04:21.550Z,74342.19
2023-07-01T03:07:09.951Z,74366.16
2023-07-01T03:10:06.665Z,74398.00
2023-07-01T03:12:49.815Z,74381.34
2023-07-01T03:15:33.769Z,74388.00
2023-07-01T03:18:17.954Z,74415.63
2023-07-01T03:21:02.182Z,74382.53
2023-07-01T03:23:45.885Z,74351.59
2023-07-01T03:26:33.996Z,74349.78
2023-07-01T03:29:13.083Z,74372.53
2023-07-01T03:31:58.125Z,74390.16
2023-07-01T03:34:42.352Z,74379.78
2023-07-01T03:37:30.597Z,74402.56
2023-07-01T03:40:14.907Z,74379.22
2023-07-01T03:43:04.114Z,74390.72
2023-07-01T03:45:47.307Z,74434.78
2023-07-01T03:48:31.113Z,74437.53
2023-07-01T03:51:09.192Z,74409.84
2023-07-01T03:53:52.908Z,74438.97
2023-07-01T03:56:34.275Z,74464.19
2023-07-01T03:59:10.889Z,74430.19
2023-07-01T04:02:04.987Z,74500.34
2023-07-01T04:04:49.328Z,74479.94
2023-07-01T04:07:36.889Z,74500.63
2023-07-01T04:10:19.139Z,74545.25
2023-07-01T04:12:59.566Z,74525.53
2023-07-01T04:15:41.176Z,74512.16
2023-07-01T04:18:30.073Z,74580.81
2023-07-01T04:21:07.878Z,74620.91
2023-07-01T04:23:55.403Z,74613.03
2023-07-01T04:26:45.277Z,74659.81
2023-07-01T04:29:28.166Z,74694.22
2023-07-01T04:32:12.872Z,74688.06
2023-07-01T04:34:58.752Z,74729.75
2023-07-01T04:37:35.309Z,74747.38
2023-07-01T04:40:17.934Z,74755.31
2023-07-01T04:43:05.113Z,74814.91
2023-07-01T04:45:51.522Z,74895.22
2023-07-01T04:48:27.837Z,74893.41
2023-07-01T04:51:20.376Z,74927.78
2023-07-01T04:53:58.795Z,74968.28
2023-07-01T04:56:39.720Z,75023.38
2023-07-01T04:59:25.751Z,75062.97
2023-07-01T05:02:09.440Z,75013.63
2023-07-01T05:04:52.917Z,75064.53
2023-07-01T05:07:34.923Z,75030.06
2023-07-01T05:10:13.812Z,75066.63
2023-07-01T05:13:06.376Z,75114.72
2023-07-01T05:15:50.573Z,75153.75
2023-07-01T05:18:32.348Z,75164.44
2023-07-01T05:21:26.652Z,75209.41
2023-07-01T05:24:13.542Z,75297.38
2023-07-01T05:26:54.823Z,75262.00
2023-07-01T05:29:35.050Z,75284.84
2023-07-01T05:32:16.709Z,75398.63
2023-07-01T05:35:02.479Z,75455.66
2023-07-01T05:37:48.409Z,75493.06
2023-07-01T05:40:29.584Z,75469.06
2023-07-01T05:43:07.587Z,75457.06
2023-07-01T05:48:42.407Z,75575.06
2023-07-01T05:51:23.884Z,75626.47
2023-07-01T05:54:04.852Z,75655.47
2023-07-01T05:56:49.688Z,75734.31
2023-07-01T05:59:30.656Z,75727.16
2023-07-01T06:02:06.039Z,75714.16
2023-07-01T06:05:03.753Z,75817.66
2023-07-01T06:07:42.342Z,75764.72
2023-07-01T06:10:25.598Z,75752.25
2023-07-01T06:13:09.758Z,75747.97
2023-07-01T06:15:50.825Z,75765.69
2023-07-01T06:18:38.443Z,75773.28
2023-07-01T06:21:18.045Z,75799.56
2023-07-01T06:23:59.321Z,75901.78
2023-07-01T06:26:42.352Z,75947.72
2023-07-01T06:29:24.657Z,75981.22
2023-07-01T06:32:07.942Z,75931.19
2023-07-01T06:34:56.251Z,75907.97
2023-07-01T06:37:42.613Z,75916.75
2023-07-01T06:40:31.752Z,76004.59
2023-07-01T06:43:27.219Z,75974.84
2023-07-01T06:46:14.732Z,76000.31
2023-07-01T06:48:50.931Z,76017.69
2023-07-01T06:51:35.261Z,76082.31
2023-07-01T06:54:20.629Z,76101.88
2023-07-01T06:57:09.490Z,76064.56
2023-07-01T06:59:53.609Z,76100.31
2023-07-01T07:02:30.737Z,76122.09
2023-07-01T07:05:24.826Z,76179.66
2023-07-01T07:08:05.421Z,76204.75
2023-07-01T07:10:50.332Z,76122.97
2023-07-01T07:13:43.418Z,76122.72
2023-07-01T07:16:39.015Z,76157.84
2023-07-01T07:19:20.709Z,76195.22
2023-07-01T07:22:00.097Z,76177.81
2023-07-01T07:24:44.889Z,76214.19
2023-07-01T07:27:26.358Z,76186.03
2023-07-01T07:33:10.707Z,76178.41
2023-07-01T07:35:52.027Z,76197.66
2023-07-01T07:38:33.190Z,76211.50
2023-07-01T07:41:14.710Z,76215.19
2023-07-01T07:44:04.484Z,76224.00
2023-07-01T07:46:49.867Z,76233.56
2023-07-01T07:49:33.202Z,76251.81
2023-07-01T07:52:14.113Z,76259.28
2023-07-01T07:54:55.053Z,76253.13
2023-07-01T07:57:36.142Z,76362.22
2023-07-01T08:00:20.485Z,76277.66
2023-07-01T08:03:04.947Z,76411.47
2023-07-01T08:05:42.918Z,76412.72
2023-07-01T08:08:26.868Z,76436.00
2023-07-01T08:11:21.269Z,76339.50
2023-07-01T08:14:11.822Z,76328.16
2023-07-01T08:16:58.106Z,76367.09
2023-07-01T08:19:37.787Z,76407.53
2023-07-01T08:22:22.497Z,76289.28
2023-07-01T08:25:03.422Z,76302.75
2023-07-01T08:27:45.057Z,76462.72
2023-07-01T08:30:36.125Z,76369.56
2023-07-01T08:33:14.672Z,76366.50
2023-07-01T08:36:14.735Z,76439.41
2023-07-01T08:38:53.279Z,76436.34
2023-07-01T08:41:30.049Z,76410.00
2023-07-01T08:44:14.489Z,76407.19
2023-07-01T08:46:58.124Z,76483.56
2023-07-01T08:49:44.406Z,76441.28
2023-07-01T08:52:27.380Z,76501.94
2023-07-01T08:55:13.790Z,76574.94
2023-07-01T08:57:55.756Z,76486.28
2023-07-01T09:00:43.055Z,76543.31
2023-07-01T09:03:24.987Z,76589.00
2023-07-01T09:06:23.486Z,76585.63
2023-07-01T09:09:03.050Z,76455.97
2023-07-01T09:11:44.478Z,76540.63
2023-07-01T09:14:24.877Z,76592.38
2023-07-01T09:17:12.435Z,76463.34
2023-07-01T09:20:09.943Z,76502.22
2023-07-01T09:23:00.016Z,76537.50
2023-07-01T09:25:41.251Z,76478.56
2023-07-01T09:28:33.706Z,76531.38
2023-07-01T09:31:13.195Z,76613.22
2023-07-01T09:34:12.742Z,76599.44
2023-07-01T09:37:00.671Z,76541.47
2023-07-01T09:39:48.038Z,76576.16
2023-07-01T09:42:29.047Z,76613.56
2023-07-01T09:45:16.560Z,76577.06
2023-07-01T09:48:01.050Z,76625.81
2023-07-01T09:50:50.610Z,76585.94
2023-07-01T09:53:36.884Z,76510.19
2023-07-01T09:56:18.263Z,76513.88
2023-07-01T09:59:00.602Z,76401.41
2023-07-01T10:01:40.066Z,76503.78
2023-07-01T10:04:18.418Z,76616.63
2023-07-01T10:13:23.909Z,76720.31
2023-07-01T10:16:03.887Z,76745.50
2023-07-01T10:18:48.400Z,76695.75
2023-07-01T10:21:31.203Z,76711.72
2023-07-01T10:24:12.114Z,76694.53
2023-07-01T10:26:56.175Z,76632.88
2023-07-01T10:30:09.501Z,76611.72
2023-07-01T10:32:55.924Z,76682.25
2023-07-01T10:35:52.108Z,76647.00
2023-07-01T10:38:46.013Z,76714.16
2023-07-01T10:41:54.975Z,76690.22
2023-07-01T10:44:33.378Z,76641.84
2023-07-01T10:47:24.675Z,76530.44
2023-07-01T10:50:09.123Z,76675.22
2023-07-01T10:53:05.325Z,76665.78
2023-07-01T10:56:03.047Z,76729.81
2023-07-01T10:58:45.298Z,76708.34
2023-07-01T11:01:48.887Z,76711.44
2023-07-01T11:04:49.464Z,76716.63
2023-07-01T11:07:38.043Z,76728.28
2023-07-01T11:10:19.046Z,76712.41
2023-07-01T11:13:11.398Z,76623.38
2023-07-01T11:16:10.082Z,76524.03
2023-07-01T11:18:55.538Z,76623.69
2023-07-01T11:21:36.387Z,76620.28
2023-07-01T11:24:16.588Z,76676.13
2023-07-01T11:27:07.697Z,76640.22
2023-07-01T11:29:49.421Z,76668.75
2023-07-01T11:32:30.230Z,76673.97
2023-07-01T11:35:17.539Z,76605.25
2023-07-01T11:37:58.473Z,76574.94
2023-07-01T11:40:49.315Z,76628.28
2023-07-01T11:43:28.686Z,76668.75
2023-07-01T11:46:34.128Z,76594.34
2023-07-01T11:49:28.205Z,76646.06
2023-07-01T11:52:22.727Z,76591.47
2023-07-01T11:55:04.255Z,76702.19
2023-07-01T12:00:47.900Z,76605.59
2023-07-01T12:03:28.259Z,76575.22
2023-07-01T12:06:24.756Z,76644.69
2023-07-01T12:09:12.120Z,76738.81
2023-07-01T12:12:23.430Z,76678.88
2023-07-01T12:15:07.372Z,76501.00
2023-07-01T12:17:48.722Z,76537.34
2023-07-01T12:20:32.278Z,76493.41
2023-07-01T12:23:36.388Z,76561.44
2023-07-01T12:26:25.446Z,76524.91
2023-07-01T12:29:00.988Z,76562.03
2023-07-01T12:31:47.223Z,76532.66
2023-07-01T12:34:26.285Z,76458.41
2023-07-01T12:37:18.462Z,76453.78
2023-07-01T12:40:06.572Z,76417.34
2023-07-01T12:42:52.617Z,76558.03
2023-07-01T12:45:34.305Z,76678.59
2023-07-01T12:48:26.210Z,76744.84
2023-07-01T12:51:06.632Z,76679.81
2023-07-01T12:53:46.252Z,76605.25
2023-07-01T12:56:26.480Z,76677.34
2023-07-01T12:59:23.044Z,76655.28
2023-07-01T13:02:10.380Z,76783.50
2023-07-01T13:04:45.762Z,76843.09
2023-07-01T13:07:35.464Z,76805.31
2023-07-01T13:10:14.808Z,76805.63
2023-07-01T13:13:00.192Z,76851.16
2023-07-01T13:15:48.780Z,76861.81
2023-07-01T13:18:32.174Z,76899.53
2023-07-01T13:21:09.997Z,76830.25
2023-07-01T13:23:57.837Z,76816.06
2023-07-01T13:26:49.643Z,76847.97
2023-07-01T13:29:33.214Z,76916.75
2023-07-01T13:32:12.444Z,76964.97
2023-07-01T13:34:57.385Z,76942.53
2023-07-01T13:37:38.348Z,76930.88
2023-07-01T13:40:28.379Z,76916.09
2023-07-01T13:43:07.277Z,76898.94
2023-07-01T13:45:49.403Z,76855.34
2023-07-01T13:48:39.700Z,76748.56
2023-07-01T13:51:23.785Z,76647.28
2023-07-01T13:54:21.527Z,76489.97
2023-07-01T13:57:03.747Z,76649.41
2023-07-01T13:59:47.603Z,76772.78
2023-07-01T14:02:26.050Z,76669.47
2023-07-01T14:05:16.447Z,76686.56
2023-07-01T14:08:01.672Z,76635.94
2023-07-01T14:10:46.320Z,76668.47
2023-07-01T14:13:31.385Z,76508.34
2023-07-01T14:16:21.164Z,76637.16
2023-07-01T14:19:08.492Z,76614.78
2023-07-01T14:21:50.401Z,76785.97
2023-07-01T14:24:28.101Z,76824.63
2023-07-01T14:27:16.836Z,76881.44
2023-07-01T14:33:03.122Z,76820.44
2023-07-01T14:35:47.461Z,76781.66
2023-07-01T14:38:30.441Z,76765.72
2023-07-01T14:41:02.270Z,76704.34
2023-07-01T14:46:58.685Z,76649.81
2023-07-01T14:49:37.137Z,76578.00
2023-07-01T14:52:31.722Z,76496.44
2023-07-01T14:55:17.412Z,76524.31
2023-07-01T14:57:52.273Z,76442.78
2023-07-01T15:00:30.762Z,76347.75
2023-07-01T15:03:15.971Z,76308.28
2023-07-01T15:05:53.171Z,76423.75
2023-07-01T15:08:28.596Z,76362.09
2023-07-01T15:11:12.789Z,76409.03
2023-07-01T15:13:48.251Z,76243.34
2023-07-01T15:16:24.260Z,76259.28
2023-07-01T15:18:56.511Z,76188.47
2023-07-01T15:21:44.108Z,76306.69
2023-07-01T15:24:16.842Z,76361.00
2023-07-01T15:26:52.322Z,76270.31
2023-07-01T15:29:32.517Z,76268.69
2023-07-01T15:32:11.869Z,76299.97
2023-07-01T15:34:52.429Z,76275.47
2023-07-01T15:37:34.690Z,76310.97
2023-07-01T15:40:12.880Z,76259.50
2023-07-01T15:42:48.746Z,76235.38
2023-07-01T15:45:32.085Z,76211.13
2023-07-01T15:48:17.452Z,76221.28
2023-07-01T15:50:50.443Z,76205.63
2023-07-01T15:53:43.227Z,76212.75
2023-07-01T15:56:20.013Z,76203.78
2023-07-01T15:58:52.621Z,76150.13
2023-07-01T16:01:32.071Z,76160.06
2023-07-01T16:04:16.766Z,76196.44
2023-07-01T16:07:01.885Z,76148.31
2023-07-01T16:09:51.051Z,76154.19
2023-07-01T16:12:47.284Z,76103.13
2023-07-01T16:15:26.430Z,76127.25
2023-07-01T16:18:30.419Z,76111.09
2023-07-01T16:21:13.819Z,76071.56
2023-07-01T16:24:10.319Z,76099.44
2023-07-01T16:26:43.490Z,76053.78
2023-07-01T16:29:16.621Z,76105.81
2023-07-01T16:31:51.377Z,76109.59
2023-07-01T16:34:32.649Z,76084.41
2023-07-01T16:37:08.214Z,76063.94
2023-07-01T16:39:52.977Z,76104.34
2023-07-01T16:42:40.144Z,76078.03
2023-07-01T16:45:39.334Z,76063.34
2023-07-01T16:48:27.475Z,76069.09
2023-07-01T16:51:09.225Z,76076.44
2023-07-01T16:53:55.050Z,76058.41
2023-07-01T16:56:51.250Z,76085.97
2023-07-01T16:59:47.931Z,76108.03
2023-07-01T17:02:36.074Z,76097.97
2023-07-01T17:05:15.423Z,76059.91
2023-07-01T17:07:50.936Z,75965.06
2023-07-01T17:10:37.637Z,75965.44
2023-07-01T17:13:37.730Z,75996.25
2023-07-01T17:16:16.046Z,75995.41
2023-07-01T17:18:57.633Z,76007.88
2023-07-01T17:21:45.932Z,76004.59
2023-07-01T17:24:27.866Z,75966.91
2023-07-01T17:27:12.710Z,75944.25
2023-07-01T17:29:51.812Z,75951.59
2023-07-01T17:32:42.635Z,75939.75
2023-07-01T17:35:18.584Z,75973.00
2023-07-01T17:38:02.084Z,75959.56
2023-07-01T17:40:37.622Z,75943.03
2023-07-01T17:43:24.614Z,75939.59
2023-07-01T17:46:02.034Z,75966.91
2023-07-01T17:48:46.602Z,75923.84
2023-07-01T17:51:30.235Z,75890.41
2023-07-01T17:54:11.982Z,75886.16
2023-07-01T17:56:54.335Z,75867.81
2023-07-01T17:59:33.325Z,75867.81
2023-07-01T18:02:17.419Z,75791.09
2023-07-01T18:05:03.492Z,75781.31
2023-07-01T18:07:45.662Z,75770.34
2023-07-01T18:10:30.047Z,75757.75
2023-07-01T18:13:08.251Z,75714.69
2023-07-01T18:15:49.698Z,75765.94
2023-07-01T18:18:22.608Z,75692.47
2023-07-01T18:21:05.130Z,75682.34
2023-07-01T18:23:54.476Z,75663.03
2023-07-01T18:26:36.336Z,75717.75
2023-07-01T18:29:27.998Z,75767.03
2023-07-01T18:32:02.069Z,75733.28
2023-07-01T18:34:47.895Z,75773.66
2023-07-01T18:37:28.354Z,75777.66
2023-07-01T18:40:00.815Z,75745.53
2023-07-01T18:42:50.123Z,75698.56
2023-07-01T18:45:27.680Z,75750.78
2023-07-01T18:48:20.361Z,75815.59
2023-07-01T18:51:01.897Z,75806.41
2023-07-01T18:53:47.381Z,75784.63
2023-07-01T18:56:22.827Z,75756.88
2023-07-01T18:59:02.204Z,75780.38
2023-07-01T19:01:41.487Z,75832.44
2023-07-01T19:04:32.279Z,75813.38
2023-07-01T19:07:05.046Z,75788.28
2023-07-01T19:09:41.103Z,75749.47
2023-07-01T19:12:21.465Z,75760.53
2023-07-01T19:15:07.042Z,75754.44
2023-07-01T19:17:45.012Z,75700.31
2023-07-01T19:20:57.675Z,75740.03
2023-07-01T19:23:46.502Z,75744.31
2023-07-01T19:26:21.875Z,75698.22
2023-07-01T19:29:07.251Z,75690.53
2023-07-01T19:31:52.131Z,75657.25
2023-07-01T19:34:36.535Z,75696.13
2023-07-01T19:37:22.173Z,75684.78
2023-07-01T19:40:04.604Z,75607.09
2023-07-01T19:42:49.459Z,75673.75
2023-07-01T19:45:25.202Z,75726.56
2023-07-01T19:48:07.300Z,75701.28
2023-07-01T19:50:50.759Z,75712.53
2023-07-01T19:53:33.104Z,75621.56
2023-07-01T19:56:19.971Z,75614.59
2023-07-01T19:59:03.374Z,75665.47
2023-07-01T20:01:46.080Z,75655.09
2023-07-01T20:04:30.856Z,75528.66
2023-07-01T20:07:19.948Z,75548.44
2023-07-01T20:10:12.461Z,75541.47
2023-07-01T20:12:58.773Z,75533.53
2023-07-01T20:15:44.020Z,75430.72
2023-07-01T20:18:22.364Z,75434.97
2023-07-01T20:21:03.197Z,75420.59
2023-07-01T20:23:43.589Z,75466.13
2023-07-01T20:26:30.074Z,75443.19
2023-07-01T20:29:15.375Z,75436.47
2023-07-01T20:32:10.771Z,75585.19
2023-07-01T20:34:58.599Z,75565.03
2023-07-01T20:37:39.640Z,75544.25
2023-07-01T20:40:24.002Z,75511.94
2023-07-01T20:43:44.478Z,75499.97
2023-07-01T20:46:28.962Z,75486.16
2023-07-01T20:52:05.921Z,75495.31
2023-07-01T20:54:40.999Z,75511.31
2023-07-01T20:57:29.898Z,75458.19
2023-07-01T21:00:13.707Z,75491.16
2023-07-01T21:02:51.686Z,75388.88
2023-07-01T21:05:38.881Z,75318.09
2023-07-01T21:08:23.889Z,75324.56
2023-07-01T21:11:12.726Z,75288.56
2023-07-01T21:14:01.272Z,75267.16
2023-07-01T21:16:51.879Z,75312.88
2023-07-01T21:19:46.532Z,75291.00
2023-07-01T21:25:39.980Z,75269.03
2023-07-01T21:28:16.418Z,75285.53
2023-07-01T21:31:05.750Z,75293.44
2023-07-01T21:33:41.423Z,75241.09
2023-07-01T21:36:22.766Z,75220.88
2023-07-01T21:39:10.390Z,75203.47
2023-07-01T21:42:04.232Z,75229.06
2023-07-01T21:45:02.584Z,75238.81
2023-07-01T21:51:17.239Z,75256.78
2023-07-01T21:54:02.851Z,75243.09
2023-07-01T21:56:52.595Z,75232.72
2023-07-01T21:59:33.933Z,75205.91
2023-07-01T22:02:31.121Z,75226.00
2023-07-01T22:05:18.278Z,75230.28
2023-07-01T22:07:59.257Z,75225.06
2023-07-01T22:10:56.991Z,75182.59
2023-07-01T22:13:41.085Z,75194.94
2023-07-01T22:16:24.222Z,75198.59
2023-07-01T22:19:02.137Z,75180.28
2023-07-01T22:21:48.684Z,75189.16
2023-07-01T22:24:35.038Z,75143.13
2023-07-01T22:27:18.674Z,75182.47
2023-07-01T22:30:04.194Z,75165.41
2023-07-01T22:32:48.237Z,75148.00
2023-07-01T22:35:29.109Z,75144.41
2023-07-01T22:38:08.162Z,75161.13
2023-07-01T22:41:00.869Z,75147.38
2023-07-01T22:43:48.260Z,75128.22
2023-07-01T22:46:35.999Z,75130.59
2023-07-01T22:49:16.850Z,75109.59
2023-07-01T22:51:59.017Z,75122.47
2023-07-01T22:54:54.642Z,75110.47
2023-07-01T22:57:40.403Z,75083.28
2023-07-01T23:00:28.863Z,75110.22
2023-07-01T23:03:15.980Z,75140.16
2023-07-01T23:06:01.581Z,75124.22
2023-07-01T23:08:44.510Z,75072.47
2023-07-01T23:11:23.161Z,75081.94
2023-07-01T23:14:10.200Z,75027.44
2023-07-01T23:16:54.735Z,75016.13
2023-07-01T23:19:41.088Z,75023.97
2023-07-01T23:25:23.539Z,74970.72
2023-07-01T23:28:11.289Z,74939.69
2023-07-01T23:31:06.840Z,74951.22
2023-07-01T23:33:44.956Z,74961.88
2023-07-01T23:36:23.301Z,74952.13
2023-07-01T23:42:07.182Z,74922.69
2023-07-01T23:44:52.268Z,74921.47
2023-07-01T23:47:45.854Z,74942.09
2023-07-01T23:50:31.193Z,74943.06
2023-07-01T23:53:12.075Z,74923.28
2023-07-01T23:55:56.865Z,74941.84
2023-07-01T23:58:40.765Z,74945.16
